sensor_id;sensor_type;location;lat;lon;timestamp;P1;durP1;ratioP1;P2;durP2;ratioP2
77018;SDS011;66044;53.142;17.962;2024-03-08T00:00:59;16.20;;;8.30;;
77018;SDS011;66044;53.142;17.962;2024-03-08T00:03:42;17.00;;;8.60;;
77018;SDS011;66044;53.142;17.962;2024-03-08T00:06:09;25.20;;;11.40;;
77018;SDS011;66044;53.142;17.962;2024-03-08T00:08:35;21.90;;;11.20;;
77018;SDS011;66044;53.142;17.962;2024-03-08T00:11:02;25.90;;;12.60;;
77018;SDS011;66044;53.142;17.962;2024-03-08T00:13:29;22.10;;;10.40;;
77018;SDS011;66044;53.142;17.962;2024-03-08T00:15:56;20.60;;;10.50;;
77018;SDS011;66044;53.142;17.962;2024-03-08T00:18:23;22.80;;;11.10;;
77018;SDS011;66044;53.142;17.962;2024-03-08T00:20:50;24.90;;;12.10;;
77018;SDS011;66044;53.142;17.962;2024-03-08T00:23:17;22.00;;;10.40;;
77018;SDS011;66044;53.142;17.962;2024-03-08T00:25:45;18.70;;;9.90;;
77018;SDS011;66044;53.142;17.962;2024-03-08T00:28:12;21.50;;;11.20;;
77018;SDS011;66044;53.142;17.962;2024-03-08T00:30:43;22.50;;;11.70;;
77018;SDS011;66044;53.142;17.962;2024-03-08T00:33:10;21.50;;;11.10;;
77018;SDS011;66044;53.142;17.962;2024-03-08T00:35:36;21.80;;;11.00;;
77018;SDS011;66044;53.142;17.962;2024-03-08T00:38:03;21.10;;;11.10;;
77018;SDS011;66044;53.142;17.962;2024-03-08T00:40:29;23.30;;;11.00;;
77018;SDS011;66044;53.142;17.962;2024-03-08T00:42:55;22.50;;;11.60;;
77018;SDS011;66044;53.142;17.962;2024-03-08T00:45:22;23.60;;;11.60;;
77018;SDS011;66044;53.142;17.962;2024-03-08T00:47:52;19.50;;;10.30;;
77018;SDS011;66044;53.142;17.962;2024-03-08T00:50:20;21.80;;;10.60;;
77018;SDS011;66044;53.142;17.962;2024-03-08T00:52:46;19.20;;;11.30;;
77018;SDS011;66044;53.142;17.962;2024-03-08T00:55:13;20.20;;;10.70;;
77018;SDS011;66044;53.142;17.962;2024-03-08T00:57:40;18.90;;;10.30;;
77018;SDS011;66044;53.142;17.962;2024-03-08T01:00:07;19.80;;;10.50;;
77018;SDS011;66044;53.142;17.962;2024-03-08T01:02:36;18.50;;;9.20;;
77018;SDS011;66044;53.142;17.962;2024-03-08T01:05:02;19.10;;;10.00;;
77018;SDS011;66044;53.142;17.962;2024-03-08T01:07:30;21.40;;;10.00;;
77018;SDS011;66044;53.142;17.962;2024-03-08T01:09:56;23.10;;;10.80;;
77018;SDS011;66044;53.142;17.962;2024-03-08T01:12:26;19.50;;;10.70;;
77018;SDS011;66044;53.142;17.962;2024-03-08T01:14:52;18.30;;;9.30;;
77018;SDS011;66044;53.142;17.962;2024-03-08T01:17:20;21.30;;;11.20;;
77018;SDS011;66044;53.142;17.962;2024-03-08T01:19:49;21.30;;;10.70;;
77018;SDS011;66044;53.142;17.962;2024-03-08T01:22:16;17.70;;;8.90;;
77018;SDS011;66044;53.142;17.962;2024-03-08T01:24:42;17.20;;;9.10;;
77018;SDS011;66044;53.142;17.962;2024-03-08T01:27:09;17.60;;;8.80;;
77018;SDS011;66044;53.142;17.962;2024-03-08T01:29:35;22.30;;;10.10;;
77018;SDS011;66044;53.142;17.962;2024-03-08T01:32:02;17.80;;;8.90;;
77018;SDS011;66044;53.142;17.962;2024-03-08T01:34:29;14.90;;;8.20;;
77018;SDS011;66044;53.142;17.962;2024-03-08T01:36:55;21.00;;;10.90;;
77018;SDS011;66044;53.142;17.962;2024-03-08T01:39:22;19.00;;;9.50;;
77018;SDS011;66044;53.142;17.962;2024-03-08T01:41:49;16.20;;;8.20;;
77018;SDS011;66044;53.142;17.962;2024-03-08T01:44:18;18.40;;;9.90;;
77018;SDS011;66044;53.142;17.962;2024-03-08T01:46:44;20.30;;;10.30;;
77018;SDS011;66044;53.142;17.962;2024-03-08T01:49:11;20.70;;;10.50;;
77018;SDS011;66044;53.142;17.962;2024-03-08T01:51:39;23.70;;;11.50;;
77018;SDS011;66044;53.142;17.962;2024-03-08T01:54:07;20.80;;;10.70;;
77018;SDS011;66044;53.142;17.962;2024-03-08T01:56:38;17.40;;;9.30;;
77018;SDS011;66044;53.142;17.962;2024-03-08T01:59:05;20.40;;;10.00;;
77018;SDS011;66044;53.142;17.962;2024-03-08T02:01:34;16.90;;;8.10;;
77018;SDS011;66044;53.142;17.962;2024-03-08T02:04:00;18.70;;;9.20;;
77018;SDS011;66044;53.142;17.962;2024-03-08T02:06:27;17.60;;;8.30;;
77018;SDS011;66044;53.142;17.962;2024-03-08T02:08:53;17.60;;;8.70;;
77018;SDS011;66044;53.142;17.962;2024-03-08T02:11:20;15.60;;;8.50;;
77018;SDS011;66044;53.142;17.962;2024-03-08T02:13:46;17.40;;;7.50;;
77018;SDS011;66044;53.142;17.962;2024-03-08T02:16:19;15.70;;;8.10;;
77018;SDS011;66044;53.142;17.962;2024-03-08T02:18:49;14.00;;;7.90;;
77018;SDS011;66044;53.142;17.962;2024-03-08T02:21:16;16.30;;;7.40;;
77018;SDS011;66044;53.142;17.962;2024-03-08T02:23:47;13.70;;;6.70;;
77018;SDS011;66044;53.142;17.962;2024-03-08T02:26:13;14.60;;;6.40;;
77018;SDS011;66044;53.142;17.962;2024-03-08T02:28:40;15.30;;;7.10;;
77018;SDS011;66044;53.142;17.962;2024-03-08T02:31:09;16.00;;;7.20;;
77018;SDS011;66044;53.142;17.962;2024-03-08T02:33:35;14.60;;;7.10;;
77018;SDS011;66044;53.142;17.962;2024-03-08T02:36:02;14.90;;;7.60;;
77018;SDS011;66044;53.142;17.962;2024-03-08T02:38:28;15.50;;;7.40;;
77018;SDS011;66044;53.142;17.962;2024-03-08T02:40:55;17.00;;;7.90;;
77018;SDS011;66044;53.142;17.962;2024-03-08T02:43:21;16.80;;;7.50;;
77018;SDS011;66044;53.142;17.962;2024-03-08T02:45:48;14.30;;;7.10;;
77018;SDS011;66044;53.142;17.962;2024-03-08T02:48:16;16.70;;;7.30;;
77018;SDS011;66044;53.142;17.962;2024-03-08T02:50:42;15.60;;;7.40;;
77018;SDS011;66044;53.142;17.962;2024-03-08T02:53:11;14.20;;;7.00;;
77018;SDS011;66044;53.142;17.962;2024-03-08T02:55:39;15.10;;;6.40;;
77018;SDS011;66044;53.142;17.962;2024-03-08T02:58:07;15.40;;;7.40;;
77018;SDS011;66044;53.142;17.962;2024-03-08T03:00:38;15.30;;;7.40;;
77018;SDS011;66044;53.142;17.962;2024-03-08T03:03:05;15.70;;;8.00;;
77018;SDS011;66044;53.142;17.962;2024-03-08T03:05:32;14.50;;;7.40;;
77018;SDS011;66044;53.142;17.962;2024-03-08T03:08:02;16.80;;;7.80;;
77018;SDS011;66044;53.142;17.962;2024-03-08T03:10:35;14.30;;;7.20;;
77018;SDS011;66044;53.142;17.962;2024-03-08T03:13:02;15.80;;;8.50;;
77018;SDS011;66044;53.142;17.962;2024-03-08T03:15:30;15.40;;;7.50;;
77018;SDS011;66044;53.142;17.962;2024-03-08T03:17:57;15.10;;;8.00;;
77018;SDS011;66044;53.142;17.962;2024-03-08T03:20:23;19.10;;;8.00;;
77018;SDS011;66044;53.142;17.962;2024-03-08T03:22:52;14.70;;;8.30;;
77018;SDS011;66044;53.142;17.962;2024-03-08T03:25:19;21.90;;;11.60;;
77018;SDS011;66044;53.142;17.962;2024-03-08T03:27:55;23.60;;;11.40;;
77018;SDS011;66044;53.142;17.962;2024-03-08T03:30:24;19.80;;;10.10;;
77018;SDS011;66044;53.142;17.962;2024-03-08T03:32:53;18.80;;;9.20;;
77018;SDS011;66044;53.142;17.962;2024-03-08T03:35:21;20.40;;;10.40;;
77018;SDS011;66044;53.142;17.962;2024-03-08T03:37:48;17.20;;;9.10;;
77018;SDS011;66044;53.142;17.962;2024-03-08T03:40:38;19.20;;;9.60;;
77018;SDS011;66044;53.142;17.962;2024-03-08T03:43:07;15.60;;;7.70;;
77018;SDS011;66044;53.142;17.962;2024-03-08T03:45:36;14.40;;;6.70;;
77018;SDS011;66044;53.142;17.962;2024-03-08T03:48:03;13.90;;;7.10;;
77018;SDS011;66044;53.142;17.962;2024-03-08T03:50:32;15.20;;;7.50;;
77018;SDS011;66044;53.142;17.962;2024-03-08T03:53:01;14.90;;;7.30;;
77018;SDS011;66044;53.142;17.962;2024-03-08T03:55:34;17.40;;;7.40;;
77018;SDS011;66044;53.142;17.962;2024-03-08T03:58:03;15.60;;;7.50;;
77018;SDS011;66044;53.142;17.962;2024-03-08T04:00:29;15.00;;;7.10;;
77018;SDS011;66044;53.142;17.962;2024-03-08T04:02:56;17.30;;;8.20;;
77018;SDS011;66044;53.142;17.962;2024-03-08T04:05:25;14.90;;;7.50;;
77018;SDS011;66044;53.142;17.962;2024-03-08T04:07:52;18.50;;;8.80;;
77018;SDS011;66044;53.142;17.962;2024-03-08T04:10:18;18.10;;;10.30;;
77018;SDS011;66044;53.142;17.962;2024-03-08T04:12:46;19.00;;;10.20;;
77018;SDS011;66044;53.142;17.962;2024-03-08T04:15:14;22.80;;;10.70;;
77018;SDS011;66044;53.142;17.962;2024-03-08T04:17:41;22.20;;;9.70;;
77018;SDS011;66044;53.142;17.962;2024-03-08T04:20:07;21.00;;;11.10;;
77018;SDS011;66044;53.142;17.962;2024-03-08T04:22:36;22.90;;;11.10;;
77018;SDS011;66044;53.142;17.962;2024-03-08T04:25:03;28.10;;;12.40;;
77018;SDS011;66044;53.142;17.962;2024-03-08T04:27:31;22.20;;;11.70;;
77018;SDS011;66044;53.142;17.962;2024-03-08T04:29:59;31.40;;;14.00;;
77018;SDS011;66044;53.142;17.962;2024-03-08T04:32:25;28.30;;;12.50;;
77018;SDS011;66044;53.142;17.962;2024-03-08T04:34:52;24.10;;;10.50;;
77018;SDS011;66044;53.142;17.962;2024-03-08T04:37:18;26.20;;;12.90;;
77018;SDS011;66044;53.142;17.962;2024-03-08T04:39:48;23.40;;;10.60;;
77018;SDS011;66044;53.142;17.962;2024-03-08T04:42:14;21.30;;;10.50;;
77018;SDS011;66044;53.142;17.962;2024-03-08T04:44:42;20.60;;;9.90;;
77018;SDS011;66044;53.142;17.962;2024-03-08T04:47:09;19.70;;;9.10;;
77018;SDS011;66044;53.142;17.962;2024-03-08T04:49:37;17.70;;;8.50;;
77018;SDS011;66044;53.142;17.962;2024-03-08T04:52:03;17.60;;;8.20;;
77018;SDS011;66044;53.142;17.962;2024-03-08T04:54:30;18.10;;;8.40;;
77018;SDS011;66044;53.142;17.962;2024-03-08T04:56:57;15.60;;;7.70;;
77018;SDS011;66044;53.142;17.962;2024-03-08T04:59:26;16.90;;;7.80;;
77018;SDS011;66044;53.142;17.962;2024-03-08T05:01:53;15.00;;;7.50;;
77018;SDS011;66044;53.142;17.962;2024-03-08T05:04:22;18.00;;;8.00;;
77018;SDS011;66044;53.142;17.962;2024-03-08T05:06:48;16.70;;;8.00;;
77018;SDS011;66044;53.142;17.962;2024-03-08T05:09:15;21.20;;;10.60;;
77018;SDS011;66044;53.142;17.962;2024-03-08T05:11:43;31.40;;;15.20;;
77018;SDS011;66044;53.142;17.962;2024-03-08T05:14:10;35.40;;;15.40;;
77018;SDS011;66044;53.142;17.962;2024-03-08T05:16:37;31.90;;;13.20;;
77018;SDS011;66044;53.142;17.962;2024-03-08T05:19:04;30.30;;;13.40;;
77018;SDS011;66044;53.142;17.962;2024-03-08T05:21:33;35.60;;;15.70;;
77018;SDS011;66044;53.142;17.962;2024-03-08T05:24:01;51.40;;;24.80;;
77018;SDS011;66044;53.142;17.962;2024-03-08T05:26:28;66.60;;;29.10;;
77018;SDS011;66044;53.142;17.962;2024-03-08T05:28:56;67.40;;;25.30;;
77018;SDS011;66044;53.142;17.962;2024-03-08T05:31:24;81.40;;;31.00;;
77018;SDS011;66044;53.142;17.962;2024-03-08T05:33:50;87.70;;;34.70;;
77018;SDS011;66044;53.142;17.962;2024-03-08T05:36:17;83.80;;;33.50;;
77018;SDS011;66044;53.142;17.962;2024-03-08T05:38:45;80.80;;;30.70;;
77018;SDS011;66044;53.142;17.962;2024-03-08T05:41:12;68.50;;;26.50;;
77018;SDS011;66044;53.142;17.962;2024-03-08T05:43:40;70.60;;;26.90;;
77018;SDS011;66044;53.142;17.962;2024-03-08T05:46:06;72.20;;;27.50;;
77018;SDS011;66044;53.142;17.962;2024-03-08T05:48:33;63.70;;;26.00;;
77018;SDS011;66044;53.142;17.962;2024-03-08T05:51:00;58.20;;;22.30;;
77018;SDS011;66044;53.142;17.962;2024-03-08T05:53:26;60.00;;;24.20;;
77018;SDS011;66044;53.142;17.962;2024-03-08T05:55:53;54.00;;;21.10;;
77018;SDS011;66044;53.142;17.962;2024-03-08T05:58:20;47.40;;;17.70;;
77018;SDS011;66044;53.142;17.962;2024-03-08T06:00:46;39.00;;;15.50;;
77018;SDS011;66044;53.142;17.962;2024-03-08T06:03:13;26.80;;;11.80;;
77018;SDS011;66044;53.142;17.962;2024-03-08T06:05:39;30.10;;;12.80;;
77018;SDS011;66044;53.142;17.962;2024-03-08T06:08:08;31.00;;;13.10;;
77018;SDS011;66044;53.142;17.962;2024-03-08T06:10:34;24.60;;;11.50;;
77018;SDS011;66044;53.142;17.962;2024-03-08T06:13:01;17.50;;;7.80;;
77018;SDS011;66044;53.142;17.962;2024-03-08T06:15:28;19.30;;;8.60;;
77018;SDS011;66044;53.142;17.962;2024-03-08T06:17:55;20.70;;;8.30;;
77018;SDS011;66044;53.142;17.962;2024-03-08T06:20:21;18.50;;;9.40;;
77018;SDS011;66044;53.142;17.962;2024-03-08T06:22:52;28.80;;;14.70;;
77018;SDS011;66044;53.142;17.962;2024-03-08T06:25:19;23.30;;;12.20;;
77018;SDS011;66044;53.142;17.962;2024-03-08T06:27:47;23.30;;;11.60;;
77018;SDS011;66044;53.142;17.962;2024-03-08T06:30:14;27.20;;;14.50;;
77018;SDS011;66044;53.142;17.962;2024-03-08T06:32:43;30.10;;;15.40;;
77018;SDS011;66044;53.142;17.962;2024-03-08T06:35:10;34.50;;;18.70;;
77018;SDS011;66044;53.142;17.962;2024-03-08T06:37:38;42.30;;;21.00;;
77018;SDS011;66044;53.142;17.962;2024-03-08T06:40:05;35.60;;;18.40;;
77018;SDS011;66044;53.142;17.962;2024-03-08T06:42:35;38.40;;;19.00;;
77018;SDS011;66044;53.142;17.962;2024-03-08T06:45:01;39.30;;;18.60;;
77018;SDS011;66044;53.142;17.962;2024-03-08T06:47:33;40.00;;;20.00;;
77018;SDS011;66044;53.142;17.962;2024-03-08T06:49:59;29.10;;;14.90;;
77018;SDS011;66044;53.142;17.962;2024-03-08T06:52:26;34.90;;;17.40;;
77018;SDS011;66044;53.142;17.962;2024-03-08T06:54:52;33.30;;;17.10;;
77018;SDS011;66044;53.142;17.962;2024-03-08T06:57:19;33.40;;;16.40;;
77018;SDS011;66044;53.142;17.962;2024-03-08T06:59:49;36.40;;;19.20;;
77018;SDS011;66044;53.142;17.962;2024-03-08T07:02:15;30.10;;;15.50;;
77018;SDS011;66044;53.142;17.962;2024-03-08T07:04:42;29.80;;;16.60;;
77018;SDS011;66044;53.142;17.962;2024-03-08T07:07:08;33.50;;;17.80;;
77018;SDS011;66044;53.142;17.962;2024-03-08T07:09:35;33.20;;;17.50;;
77018;SDS011;66044;53.142;17.962;2024-03-08T07:12:02;32.30;;;18.10;;
77018;SDS011;66044;53.142;17.962;2024-03-08T07:14:30;34.80;;;18.60;;
77018;SDS011;66044;53.142;17.962;2024-03-08T07:16:59;37.60;;;19.70;;
77018;SDS011;66044;53.142;17.962;2024-03-08T07:19:26;30.50;;;16.50;;
77018;SDS011;66044;53.142;17.962;2024-03-08T07:21:52;41.20;;;21.20;;
77018;SDS011;66044;53.142;17.962;2024-03-08T07:24:19;38.60;;;20.40;;
77018;SDS011;66044;53.142;17.962;2024-03-08T07:27:04;30.40;;;16.90;;
77018;SDS011;66044;53.142;17.962;2024-03-08T07:29:39;33.80;;;18.10;;
77018;SDS011;66044;53.142;17.962;2024-03-08T07:32:06;34.60;;;19.80;;
77018;SDS011;66044;53.142;17.962;2024-03-08T07:34:47;26.70;;;16.60;;
77018;SDS011;66044;53.142;17.962;2024-03-08T07:37:17;27.30;;;17.00;;
77018;SDS011;66044;53.142;17.962;2024-03-08T07:39:45;24.20;;;14.30;;
77018;SDS011;66044;53.142;17.962;2024-03-08T07:42:12;31.20;;;16.90;;
77018;SDS011;66044;53.142;17.962;2024-03-08T07:44:38;22.30;;;12.80;;
77018;SDS011;66044;53.142;17.962;2024-03-08T07:47:06;23.10;;;13.40;;
77018;SDS011;66044;53.142;17.962;2024-03-08T07:49:35;25.90;;;14.00;;
77018;SDS011;66044;53.142;17.962;2024-03-08T07:52:04;26.60;;;15.50;;
77018;SDS011;66044;53.142;17.962;2024-03-08T07:54:30;26.00;;;14.20;;
77018;SDS011;66044;53.142;17.962;2024-03-08T07:56:57;21.90;;;12.20;;
77018;SDS011;66044;53.142;17.962;2024-03-08T07:59:24;26.00;;;13.60;;
77018;SDS011;66044;53.142;17.962;2024-03-08T08:01:50;26.80;;;15.20;;
77018;SDS011;66044;53.142;17.962;2024-03-08T08:04:17;33.30;;;17.90;;
77018;SDS011;66044;53.142;17.962;2024-03-08T08:06:44;28.20;;;15.20;;
77018;SDS011;66044;53.142;17.962;2024-03-08T08:09:11;24.30;;;12.50;;
77018;SDS011;66044;53.142;17.962;2024-03-08T08:11:40;26.00;;;13.70;;
77018;SDS011;66044;53.142;17.962;2024-03-08T08:14:10;20.80;;;11.60;;
77018;SDS011;66044;53.142;17.962;2024-03-08T08:16:38;23.00;;;13.10;;
77018;SDS011;66044;53.142;17.962;2024-03-08T08:19:07;28.90;;;15.30;;
77018;SDS011;66044;53.142;17.962;2024-03-08T08:21:34;22.20;;;12.60;;
77018;SDS011;66044;53.142;17.962;2024-03-08T08:24:03;23.70;;;12.70;;
77018;SDS011;66044;53.142;17.962;2024-03-08T08:26:30;25.80;;;14.20;;
77018;SDS011;66044;53.142;17.962;2024-03-08T08:28:56;23.70;;;13.20;;
77018;SDS011;66044;53.142;17.962;2024-03-08T08:31:23;25.40;;;14.40;;
77018;SDS011;66044;53.142;17.962;2024-03-08T08:33:51;22.00;;;13.00;;
77018;SDS011;66044;53.142;17.962;2024-03-08T08:36:25;22.70;;;12.80;;
77018;SDS011;66044;53.142;17.962;2024-03-08T08:38:52;27.50;;;15.40;;
77018;SDS011;66044;53.142;17.962;2024-03-08T08:41:21;21.90;;;12.20;;
77018;SDS011;66044;53.142;17.962;2024-03-08T08:43:53;24.80;;;13.60;;
77018;SDS011;66044;53.142;17.962;2024-03-08T08:46:19;24.30;;;14.20;;
77018;SDS011;66044;53.142;17.962;2024-03-08T08:48:50;24.30;;;13.40;;
77018;SDS011;66044;53.142;17.962;2024-03-08T08:51:17;24.30;;;13.70;;
77018;SDS011;66044;53.142;17.962;2024-03-08T08:53:43;24.50;;;13.40;;
77018;SDS011;66044;53.142;17.962;2024-03-08T08:56:12;23.00;;;12.50;;
77018;SDS011;66044;53.142;17.962;2024-03-08T08:58:40;21.60;;;12.20;;
77018;SDS011;66044;53.142;17.962;2024-03-08T09:01:10;23.90;;;12.90;;
77018;SDS011;66044;53.142;17.962;2024-03-08T09:03:38;24.10;;;13.80;;
77018;SDS011;66044;53.142;17.962;2024-03-08T09:06:07;20.30;;;11.50;;
77018;SDS011;66044;53.142;17.962;2024-03-08T09:08:39;21.70;;;12.70;;
77018;SDS011;66044;53.142;17.962;2024-03-08T09:11:09;21.40;;;12.20;;
77018;SDS011;66044;53.142;17.962;2024-03-08T09:13:53;27.80;;;14.90;;
77018;SDS011;66044;53.142;17.962;2024-03-08T09:16:19;23.00;;;12.60;;
77018;SDS011;66044;53.142;17.962;2024-03-08T09:18:47;18.90;;;11.70;;
77018;SDS011;66044;53.142;17.962;2024-03-08T09:21:15;21.00;;;11.80;;
77018;SDS011;66044;53.142;17.962;2024-03-08T09:23:42;19.90;;;11.90;;
77018;SDS011;66044;53.142;17.962;2024-03-08T09:26:11;33.50;;;16.80;;
77018;SDS011;66044;53.142;17.962;2024-03-08T09:28:39;23.40;;;12.20;;
77018;SDS011;66044;53.142;17.962;2024-03-08T09:31:06;21.00;;;11.10;;
77018;SDS011;66044;53.142;17.962;2024-03-08T09:33:34;16.60;;;9.30;;
77018;SDS011;66044;53.142;17.962;2024-03-08T09:36:03;19.50;;;10.00;;
77018;SDS011;66044;53.142;17.962;2024-03-08T09:38:31;23.10;;;11.30;;
77018;SDS011;66044;53.142;17.962;2024-03-08T09:40:58;15.80;;;9.00;;
77018;SDS011;66044;53.142;17.962;2024-03-08T09:43:24;14.60;;;8.10;;
77018;SDS011;66044;53.142;17.962;2024-03-08T09:45:51;13.30;;;6.60;;
77018;SDS011;66044;53.142;17.962;2024-03-08T09:48:19;12.30;;;6.40;;
77018;SDS011;66044;53.142;17.962;2024-03-08T09:50:48;13.90;;;7.20;;
77018;SDS011;66044;53.142;17.962;2024-03-08T09:53:15;16.60;;;8.30;;
77018;SDS011;66044;53.142;17.962;2024-03-08T09:55:43;13.40;;;7.10;;
77018;SDS011;66044;53.142;17.962;2024-03-08T09:58:11;18.20;;;9.60;;
77018;SDS011;66044;53.142;17.962;2024-03-08T10:00:54;19.10;;;9.90;;
77018;SDS011;66044;53.142;17.962;2024-03-08T10:03:23;19.20;;;9.40;;
77018;SDS011;66044;53.142;17.962;2024-03-08T10:05:52;15.30;;;7.70;;
77018;SDS011;66044;53.142;17.962;2024-03-08T10:08:20;15.00;;;7.80;;
77018;SDS011;66044;53.142;17.962;2024-03-08T10:10:47;13.70;;;7.20;;
77018;SDS011;66044;53.142;17.962;2024-03-08T10:13:15;15.20;;;7.70;;
77018;SDS011;66044;53.142;17.962;2024-03-08T10:15:44;14.60;;;7.60;;
77018;SDS011;66044;53.142;17.962;2024-03-08T10:18:11;18.20;;;9.10;;
77018;SDS011;66044;53.142;17.962;2024-03-08T10:20:39;13.70;;;6.50;;
77018;SDS011;66044;53.142;17.962;2024-03-08T10:23:07;13.60;;;6.80;;
77018;SDS011;66044;53.142;17.962;2024-03-08T10:25:36;15.90;;;7.70;;
77018;SDS011;66044;53.142;17.962;2024-03-08T10:28:05;12.70;;;6.70;;
77018;SDS011;66044;53.142;17.962;2024-03-08T10:30:35;15.60;;;8.30;;
77018;SDS011;66044;53.142;17.962;2024-03-08T10:33:02;13.30;;;6.50;;
77018;SDS011;66044;53.142;17.962;2024-03-08T10:35:32;15.80;;;8.10;;
77018;SDS011;66044;53.142;17.962;2024-03-08T10:38:00;12.90;;;6.30;;
77018;SDS011;66044;53.142;17.962;2024-03-08T10:40:33;13.00;;;7.10;;
77018;SDS011;66044;53.142;17.962;2024-03-08T10:43:03;12.10;;;5.70;;
77018;SDS011;66044;53.142;17.962;2024-03-08T10:50:49;11.00;;;5.30;;
77018;SDS011;66044;53.142;17.962;2024-03-08T10:53:20;13.50;;;6.30;;
77018;SDS011;66044;53.142;17.962;2024-03-08T10:55:49;14.10;;;6.40;;
77018;SDS011;66044;53.142;17.962;2024-03-08T10:58:19;14.50;;;6.60;;
77018;SDS011;66044;53.142;17.962;2024-03-08T11:00:50;10.80;;;5.10;;
77018;SDS011;66044;53.142;17.962;2024-03-08T11:04:02;15.00;;;6.20;;
77018;SDS011;66044;53.142;17.962;2024-03-08T11:06:17;11.30;;;6.00;;
77018;SDS011;66044;53.142;17.962;2024-03-08T11:08:49;10.40;;;4.60;;
77018;SDS011;66044;53.142;17.962;2024-03-08T11:11:50;12.40;;;5.60;;
77018;SDS011;66044;53.142;17.962;2024-03-08T11:19:57;14.60;;;7.20;;
77018;SDS011;66044;53.142;17.962;2024-03-08T11:22:28;14.40;;;7.10;;
77018;SDS011;66044;53.142;17.962;2024-03-08T11:25:03;13.00;;;6.40;;
77018;SDS011;66044;53.142;17.962;2024-03-08T11:27:36;16.50;;;6.20;;
77018;SDS011;66044;53.142;17.962;2024-03-08T11:30:07;13.90;;;6.10;;
77018;SDS011;66044;53.142;17.962;2024-03-08T11:32:56;11.60;;;5.50;;
77018;SDS011;66044;53.142;17.962;2024-03-08T11:35:31;14.10;;;6.80;;
77018;SDS011;66044;53.142;17.962;2024-03-08T11:38:00;11.90;;;5.80;;
77018;SDS011;66044;53.142;17.962;2024-03-08T11:40:28;11.40;;;5.00;;
77018;SDS011;66044;53.142;17.962;2024-03-08T11:42:57;12.00;;;5.10;;
77018;SDS011;66044;53.142;17.962;2024-03-08T11:45:26;13.10;;;6.00;;
77018;SDS011;66044;53.142;17.962;2024-03-08T11:47:52;13.70;;;6.30;;
77018;SDS011;66044;53.142;17.962;2024-03-08T11:50:20;20.40;;;10.30;;
77018;SDS011;66044;53.142;17.962;2024-03-08T11:52:49;14.10;;;6.60;;
77018;SDS011;66044;53.142;17.962;2024-03-08T11:55:16;14.50;;;7.20;;
77018;SDS011;66044;53.142;17.962;2024-03-08T11:57:45;11.40;;;5.40;;
77018;SDS011;66044;53.142;17.962;2024-03-08T12:00:18;10.30;;;5.00;;
77018;SDS011;66044;53.142;17.962;2024-03-08T12:03:05;16.60;;;7.00;;
77018;SDS011;66044;53.142;17.962;2024-03-08T12:05:33;18.70;;;8.60;;
77018;SDS011;66044;53.142;17.962;2024-03-08T12:08:03;16.20;;;8.10;;
77018;SDS011;66044;53.142;17.962;2024-03-08T12:10:45;14.10;;;7.00;;
77018;SDS011;66044;53.142;17.962;2024-03-08T12:13:12;11.40;;;5.50;;
77018;SDS011;66044;53.142;17.962;2024-03-08T12:15:40;16.80;;;8.40;;
77018;SDS011;66044;53.142;17.962;2024-03-08T12:18:10;12.80;;;5.80;;
77018;SDS011;66044;53.142;17.962;2024-03-08T12:20:40;15.30;;;7.90;;
77018;SDS011;66044;53.142;17.962;2024-03-08T12:23:13;11.60;;;5.70;;
77018;SDS011;66044;53.142;17.962;2024-03-08T12:25:40;12.20;;;5.20;;
77018;SDS011;66044;53.142;17.962;2024-03-08T12:28:10;10.30;;;4.60;;
77018;SDS011;66044;53.142;17.962;2024-03-08T12:30:49;14.90;;;7.20;;
77018;SDS011;66044;53.142;17.962;2024-03-08T12:33:22;16.60;;;6.70;;
77018;SDS011;66044;53.142;17.962;2024-03-08T12:35:51;12.90;;;5.80;;
77018;SDS011;66044;53.142;17.962;2024-03-08T12:38:27;11.30;;;5.40;;
77018;SDS011;66044;53.142;17.962;2024-03-08T12:40:55;12.60;;;6.70;;
77018;SDS011;66044;53.142;17.962;2024-03-08T12:43:23;13.70;;;6.00;;
77018;SDS011;66044;53.142;17.962;2024-03-08T12:45:53;12.50;;;5.60;;
77018;SDS011;66044;53.142;17.962;2024-03-08T12:48:22;13.90;;;7.40;;
77018;SDS011;66044;53.142;17.962;2024-03-08T12:50:57;18.50;;;8.80;;
77018;SDS011;66044;53.142;17.962;2024-03-08T12:53:27;15.20;;;7.20;;
77018;SDS011;66044;53.142;17.962;2024-03-08T12:55:55;10.80;;;5.30;;
77018;SDS011;66044;53.142;17.962;2024-03-08T12:58:24;15.70;;;7.40;;
77018;SDS011;66044;53.142;17.962;2024-03-08T13:00:52;13.10;;;5.40;;
77018;SDS011;66044;53.142;17.962;2024-03-08T13:03:18;9.80;;;4.90;;
77018;SDS011;66044;53.142;17.962;2024-03-08T13:05:45;9.70;;;4.30;;
77018;SDS011;66044;53.142;17.962;2024-03-08T13:08:12;12.80;;;6.00;;
77018;SDS011;66044;53.142;17.962;2024-03-08T13:10:39;12.10;;;5.80;;
77018;SDS011;66044;53.142;17.962;2024-03-08T13:13:06;14.00;;;5.90;;
77018;SDS011;66044;53.142;17.962;2024-03-08T13:15:32;16.10;;;6.30;;
77018;SDS011;66044;53.142;17.962;2024-03-08T13:18:00;12.50;;;6.20;;
77018;SDS011;66044;53.142;17.962;2024-03-08T13:20:28;11.60;;;5.70;;
77018;SDS011;66044;53.142;17.962;2024-03-08T13:22:56;13.60;;;6.80;;
77018;SDS011;66044;53.142;17.962;2024-03-08T13:25:24;12.30;;;6.30;;
77018;SDS011;66044;53.142;17.962;2024-03-08T13:27:51;13.60;;;6.70;;
77018;SDS011;66044;53.142;17.962;2024-03-08T13:30:20;13.70;;;5.50;;
77018;SDS011;66044;53.142;17.962;2024-03-08T13:32:52;11.60;;;5.70;;
77018;SDS011;66044;53.142;17.962;2024-03-08T13:35:20;11.80;;;6.10;;
77018;SDS011;66044;53.142;17.962;2024-03-08T13:37:51;11.10;;;5.60;;
77018;SDS011;66044;53.142;17.962;2024-03-08T13:40:17;14.50;;;7.50;;
77018;SDS011;66044;53.142;17.962;2024-03-08T13:42:50;11.50;;;5.30;;
77018;SDS011;66044;53.142;17.962;2024-03-08T13:45:16;12.50;;;5.90;;
77018;SDS011;66044;53.142;17.962;2024-03-08T13:47:49;12.40;;;5.90;;
77018;SDS011;66044;53.142;17.962;2024-03-08T13:50:17;10.10;;;5.20;;
77018;SDS011;66044;53.142;17.962;2024-03-08T13:52:52;11.20;;;5.40;;
77018;SDS011;66044;53.142;17.962;2024-03-08T13:55:23;12.90;;;6.50;;
77018;SDS011;66044;53.142;17.962;2024-03-08T13:57:53;16.50;;;7.40;;
77018;SDS011;66044;53.142;17.962;2024-03-08T14:00:20;14.70;;;7.80;;
77018;SDS011;66044;53.142;17.962;2024-03-08T14:02:51;13.20;;;5.80;;
77018;SDS011;66044;53.142;17.962;2024-03-08T14:05:20;13.80;;;7.30;;
77018;SDS011;66044;53.142;17.962;2024-03-08T14:07:50;12.90;;;6.20;;
77018;SDS011;66044;53.142;17.962;2024-03-08T14:10:20;15.30;;;7.40;;
77018;SDS011;66044;53.142;17.962;2024-03-08T14:12:51;13.80;;;7.20;;
77018;SDS011;66044;53.142;17.962;2024-03-08T14:15:18;15.20;;;7.60;;
77018;SDS011;66044;53.142;17.962;2024-03-08T14:17:45;15.00;;;7.70;;
77018;SDS011;66044;53.142;17.962;2024-03-08T14:20:14;15.40;;;8.00;;
77018;SDS011;66044;53.142;17.962;2024-03-08T14:22:41;16.20;;;8.10;;
77018;SDS011;66044;53.142;17.962;2024-03-08T14:25:08;13.40;;;7.10;;
77018;SDS011;66044;53.142;17.962;2024-03-08T14:27:44;12.00;;;6.50;;
77018;SDS011;66044;53.142;17.962;2024-03-08T14:30:13;15.20;;;7.80;;
77018;SDS011;66044;53.142;17.962;2024-03-08T14:32:54;17.20;;;8.20;;
77018;SDS011;66044;53.142;17.962;2024-03-08T14:35:21;13.10;;;6.60;;